Stations météo

Publicité
Alcaniz, Espagne (8164): Température de l'air & dewpoint: 11.08.2019 18:00:00 - 17.08.2019 18:00:00 (CEST)Alcaniz, Espagne (8164): Vitesse du vent & gusts: 11.08.2019 18:00:00 - 17.08.2019 18:00:00 (CEST)Alcaniz, Espagne (8164): Direction du vent: 11.08.2019 18:00:00 - 17.08.2019 18:00:00 (CEST)Alcaniz, Espagne (8164): Quantités de précipitations: 11.08.2019 18:00:00 - 17.08.2019 18:00:00 (CEST)
Date & Time tt [°C] td [°C] ff [km/h] ff [knt] fx [km/h] fx [knt] dd rr [mm]
17.08.2019 18:00:00 - - - - - - - -
17.08.2019 17:00:00 35,1 18,6 6 3 30 16 ENE 0,0
17.08.2019 16:00:00 34,9 18,5 8 4 22 12 E 0,0
17.08.2019 15:00:00 33,9 19,2 8 5 20 11 ENE 0,0
17.08.2019 14:00:00 32,2 19,8 8 4 20 11 E -
17.08.2019 13:00:00 30,8 20,1 4 2 15 8 ENE 0,0
17.08.2019 12:00:00 28,2 19,7 5 3 10 5 WNW 0,0
17.08.2019 11:00:00 25,7 19,8 6 3 14 8 WSW 0,0
17.08.2019 10:00:00 23,2 19,6 5 3 16 8 W 0,0
17.08.2019 09:00:00 21,6 19,3 5 3 10 6 W 0,0
17.08.2019 08:00:00 19,2 17,7 0 0 8 4 E -
17.08.2019 07:00:00 18,7 17,2 0 0 0 0 N 0,0
17.08.2019 06:00:00 19,3 17,5 0 0 0 0 N 0,0
17.08.2019 05:00:00 20,0 17,6 0 0 4 2 N 0,0
17.08.2019 04:00:00 21,1 17,7 3 1 10 6 E 0,0
17.08.2019 03:00:00 21,9 17,9 8 4 10 5 N 0,0
17.08.2019 02:00:00 22,8 17,9 5 3 9 5 ESE -
17.08.2019 01:00:00 23,7 18,3 0 0 3 2 N 0,0
17.08.2019 00:00:00 25,2 18,6 0 0 4 2 N 0,0
16.08.2019 23:00:00 26,7 19,1 1 0 10 5 E 0,0
16.08.2019 22:00:00 27,9 19,1 3 2 19 10 ESE 0,0
16.08.2019 21:00:00 29,4 19,4 11 6 24 13 E 0,0
16.08.2019 20:00:00 31,0 19,7 11 6 23 12 E -
16.08.2019 19:00:00 32,0 18,2 10 5 23 12 ENE 0,0
16.08.2019 18:00:00 32,8 17,9 10 5 18 10 E 0,0
16.08.2019 17:00:00 32,2 17,3 9 5 23 12 ENE 0,0
16.08.2019 16:00:00 31,9 17,4 8 5 27 15 NNE 0,0
16.08.2019 15:00:00 30,7 16,6 6 3 17 9 NE 0,0
16.08.2019 14:00:00 28,6 15,2 5 3 16 9 NE -
16.08.2019 13:00:00 27,5 15,2 1 1 18 10 NE 0,0
16.08.2019 12:00:00 25,3 14,1 6 3 14 8 ENE 0,0
16.08.2019 11:00:00 23,7 14,4 2 1 10 5 SW 0,0
16.08.2019 10:00:00 21,4 13,4 3 2 13 7 NNW 0,0
16.08.2019 09:00:00 19,6 13,1 0 0 5 3 SSW 0,0
16.08.2019 08:00:00 16,7 11,7 3 2 6 3 W -
16.08.2019 07:00:00 15,7 10,9 1 0 3 2 SSE 0,0
16.08.2019 06:00:00 17,4 11,2 0 0 4 2 N 0,0
16.08.2019 05:00:00 18,3 11,1 0 0 10 6 N 0,0
16.08.2019 04:00:00 19,0 11,3 4 2 10 5 NNE 0,0
16.08.2019 03:00:00 19,8 11,8 0 0 5 3 E 0,0
16.08.2019 02:00:00 21,6 12,4 0 0 13 7 N -
16.08.2019 01:00:00 22,1 12,1 2 1 23 12 SSW 0,0
16.08.2019 00:00:00 23,7 12,0 14 7 27 15 W 0,0
15.08.2019 23:00:00 24,8 12,4 13 7 27 14 WNW 0,0
15.08.2019 22:00:00 26,0 12,4 15 8 24 13 WNW 0,0
15.08.2019 21:00:00 27,5 13,1 10 6 21 11 NW 0,0
15.08.2019 20:00:00 29,9 14,8 9 5 20 11 NW -
15.08.2019 19:00:00 30,2 16,2 11 6 22 12 NW 0,0
15.08.2019 18:00:00 31,4 18,4 9 5 24 13 WNW 0,0
15.08.2019 17:00:00 30,2 17,6 11 6 25 14 NW 0,0
15.08.2019 16:00:00 30,5 17,9 12 6 25 14 WNW 0,0
15.08.2019 15:00:00 29,4 17,5 13 7 27 15 WNW 0,0
15.08.2019 14:00:00 28,4 17,6 9 5 25 13 W -
15.08.2019 13:00:00 27,1 17,0 10 5 27 14 WSW 0,0
15.08.2019 12:00:00 25,4 17,1 11 6 23 12 W 0,0
15.08.2019 11:00:00 24,2 17,5 12 7 23 12 W 0,0
15.08.2019 10:00:00 22,6 16,8 12 6 27 15 W 0,0
15.08.2019 09:00:00 21,2 16,1 11 6 23 12 W 0,0
15.08.2019 08:00:00 18,4 14,3 1 1 7 4 SSW -
15.08.2019 07:00:00 18,1 13,6 3 1 10 5 WSW 0,0
15.08.2019 06:00:00 18,9 13,6 3 2 9 5 W 0,0
15.08.2019 05:00:00 18,8 11,9 0 0 6 4 N 0,0
15.08.2019 04:00:00 19,4 11,4 2 1 11 6 SSW 0,0
15.08.2019 03:00:00 19,1 11,1 3 2 13 7 SE 0,0
15.08.2019 02:00:00 18,9 9,9 3 1 6 3 SSE -
15.08.2019 01:00:00 19,6 9,8 1 1 8 4 SSW 0,0
15.08.2019 00:00:00 21,9 10,6 5 3 10 5 WSW 0,0
14.08.2019 23:00:00 23,1 10,9 5 3 8 5 SW 0,0
14.08.2019 22:00:00 25,5 10,9 0 0 8 4 ESE 0,0
14.08.2019 21:00:00 28,3 11,3 4 2 11 6 NNW 0,0
14.08.2019 20:00:00 30,2 12,6 4 2 16 9 N -
14.08.2019 19:00:00 30,5 12,4 7 4 23 13 NNW 0,0
14.08.2019 18:00:00 31,0 12,8 9 5 26 14 NW 0,0
14.08.2019 17:00:00 31,2 13,1 10 5 26 14 NW 0,0
14.08.2019 16:00:00 30,2 12,1 9 5 30 16 NW 0,0
14.08.2019 15:00:00 29,7 12,1 9 5 19 10 WNW 0,0
14.08.2019 14:00:00 28,2 12,1 5 3 16 9 WSW -
14.08.2019 13:00:00 27,1 12,3 6 3 14 8 WSW 0,0
14.08.2019 12:00:00 24,9 11,8 2 1 12 6 W 0,0
14.08.2019 11:00:00 23,6 11,9 4 2 10 5 E 0,0
14.08.2019 10:00:00 21,0 11,9 1 1 5 3 E 0,0
14.08.2019 09:00:00 17,0 9,9 1 0 8 4 SW 0,0
14.08.2019 08:00:00 14,4 8,8 0 0 11 6 N -
14.08.2019 07:00:00 14,1 8,5 4 2 10 5 WSW 0,0
14.08.2019 06:00:00 14,6 8,8 0 0 8 5 N 0,0
14.08.2019 05:00:00 14,8 8,3 1 1 12 7 W 0,0
14.08.2019 04:00:00 16,6 9,6 2 1 11 6 S 0,0
14.08.2019 03:00:00 16,4 9,6 5 3 9 5 S 0,0
14.08.2019 02:00:00 17,0 8,9 3 1 9 5 WSW -
14.08.2019 01:00:00 19,1 9,8 3 2 16 8 S 0,0
14.08.2019 00:00:00 20,5 10,3 6 3 15 8 SSW 0,0
13.08.2019 23:00:00 20,8 9,0 4 2 21 12 SSW 0,0
13.08.2019 22:00:00 22,6 9,7 10 5 20 11 W 0,0
13.08.2019 21:00:00 23,8 9,8 9 5 22 12 WNW 0,0
13.08.2019 20:00:00 25,6 9,8 11 6 23 12 NW -
13.08.2019 19:00:00 26,2 11,6 9 5 24 13 NNW 0,0
13.08.2019 18:00:00 26,7 12,7 10 5 23 13 NNW 0,0
13.08.2019 17:00:00 26,1 12,2 8 4 29 16 WNW 0,0
13.08.2019 16:00:00 25,8 13,0 9 5 27 15 WNW 0,0
13.08.2019 15:00:00 24,5 12,4 7 4 26 14 WNW 0,0
13.08.2019 14:00:00 24,2 12,8 8 4 29 16 W -
13.08.2019 13:00:00 22,0 11,7 7 4 25 13 WNW 0,0
13.08.2019 12:00:00 20,6 11,6 13 7 24 13 W 0,0
13.08.2019 11:00:00 18,8 10,6 12 6 27 14 W 0,0
13.08.2019 10:00:00 17,6 10,2 14 8 29 15 W 0,0
13.08.2019 09:00:00 16,6 9,6 13 7 23 12 W 0,0
13.08.2019 08:00:00 16,2 9,4 11 6 21 11 W -
13.08.2019 07:00:00 16,2 9,8 8 5 17 9 WSW 0,0
13.08.2019 06:00:00 16,1 9,9 10 6 24 13 W 0,0
13.08.2019 05:00:00 16,2 9,8 15 8 30 16 W 0,0
13.08.2019 04:00:00 16,6 9,8 14 8 26 14 W 0,0
13.08.2019 03:00:00 16,6 9,8 11 6 29 16 WSW 0,0
13.08.2019 02:00:00 16,5 10,2 16 9 29 16 W -
13.08.2019 01:00:00 17,1 10,3 9 5 23 12 WSW 0,0
13.08.2019 00:00:00 17,7 10,0 14 8 29 16 W 0,0
12.08.2019 23:00:00 19,4 9,6 15 8 28 15 W 0,0
12.08.2019 22:00:00 20,1 9,7 5 3 24 13 WNW 0,0
12.08.2019 21:00:00 21,4 9,9 15 8 36 19 NW 0,0
12.08.2019 20:00:00 24,0 10,3 15 8 34 18 WNW -
12.08.2019 19:00:00 24,9 11,1 18 10 35 19 WNW 0,0
12.08.2019 18:00:00 25,5 10,9 19 11 44 24 NW 0,0
12.08.2019 17:00:00 25,6 11,8 16 9 39 21 WNW 0,0
12.08.2019 16:00:00 26,5 13,0 19 10 43 23 W 0,0
12.08.2019 15:00:00 26,1 13,6 16 9 36 20 WNW 0,0
12.08.2019 14:00:00 24,2 13,2 16 8 34 18 WNW -
12.08.2019 13:00:00 23,2 13,1 17 9 37 20 WNW 0,0
12.08.2019 12:00:00 22,2 13,3 16 9 36 19 W 0,0
12.08.2019 11:00:00 20,5 13,0 18 10 32 17 WNW 0,0
12.08.2019 10:00:00 18,9 12,6 18 10 33 18 W 0,0
12.08.2019 09:00:00 17,4 12,1 13 7 28 15 W 0,0
12.08.2019 08:00:00 17,2 12,1 10 5 22 12 WSW -
12.08.2019 07:00:00 16,6 11,6 10 5 25 13 WSW 0,0
12.08.2019 06:00:00 17,2 12,1 9 5 20 11 WSW 0,0
12.08.2019 05:00:00 17,9 11,9 13 7 23 12 W 0,0
12.08.2019 04:00:00 19,2 12,2 9 5 20 11 WSW 0,0
12.08.2019 03:00:00 19,8 12,3 11 6 25 14 WSW 0,0
12.08.2019 02:00:00 20,4 12,3 10 5 25 13 WSW -
12.08.2019 01:00:00 21,2 12,6 11 6 34 18 WSW 0,0
12.08.2019 00:00:00 22,7 13,5 16 9 40 21 WNW 0,0
11.08.2019 23:00:00 24,3 13,6 17 9 36 19 WNW 0,0
11.08.2019 22:00:00 26,2 13,7 18 10 32 17 NW 0,0
11.08.2019 21:00:00 29,0 15,2 13 7 29 16 NW 0,0
11.08.2019 20:00:00 30,9 16,9 5 3 14 8 NW -
11.08.2019 19:00:00 31,2 17,1 6 3 16 9 WNW 0,0
11.08.2019 18:00:00 30,9 16,9 9 5 24 13 WNW 0,0

tt = Température de l'air
td = dewpoint
ff = Vitesse du vent
fx = gusts
dd = Direction du vent
rr = Quantités de précipitations

stations d'obs. à proximité